sensor_id;sensor_type;location;lat;lon;timestamp;temperature;humidity
3406;DHT22;10008;48.682;9.016;2023-06-19T00:01:46;22.60;86.70
3406;DHT22;10008;48.682;9.016;2023-06-19T00:04:11;22.60;85.80
3406;DHT22;10008;48.682;9.016;2023-06-19T00:06:37;22.60;84.30
3406;DHT22;10008;48.682;9.016;2023-06-19T00:09:03;22.50;85.10
3406;DHT22;10008;48.682;9.016;2023-06-19T00:11:29;22.60;84.50
3406;DHT22;10008;48.682;9.016;2023-06-19T00:13:55;22.50;83.70
3406;DHT22;10008;48.682;9.016;2023-06-19T00:16:21;22.50;84.00
3406;DHT22;10008;48.682;9.016;2023-06-19T00:18:50;22.50;84.10
3406;DHT22;10008;48.682;9.016;2023-06-19T00:21:17;22.50;85.00
3406;DHT22;10008;48.682;9.016;2023-06-19T00:23:43;22.50;83.10
3406;DHT22;10008;48.682;9.016;2023-06-19T00:26:09;22.60;82.90
3406;DHT22;10008;48.682;9.016;2023-06-19T00:28:37;22.60;83.10
3406;DHT22;10008;48.682;9.016;2023-06-19T00:31:04;22.60;83.80
3406;DHT22;10008;48.682;9.016;2023-06-19T00:33:32;22.60;83.60
3406;DHT22;10008;48.682;9.016;2023-06-19T00:35:58;22.60;83.00
3406;DHT22;10008;48.682;9.016;2023-06-19T00:38:23;22.60;82.60
3406;DHT22;10008;48.682;9.016;2023-06-19T00:40:49;22.60;82.80
3406;DHT22;10008;48.682;9.016;2023-06-19T00:43:15;22.60;82.60
3406;DHT22;10008;48.682;9.016;2023-06-19T00:45:41;22.60;83.50
3406;DHT22;10008;48.682;9.016;2023-06-19T00:48:06;22.60;83.90
3406;DHT22;10008;48.682;9.016;2023-06-19T00:50:32;22.60;83.10
3406;DHT22;10008;48.682;9.016;2023-06-19T00:52:59;22.60;83.50
3406;DHT22;10008;48.682;9.016;2023-06-19T00:55:29;22.60;85.00
3406;DHT22;10008;48.682;9.016;2023-06-19T00:57:59;22.60;83.40
3406;DHT22;10008;48.682;9.016;2023-06-19T01:00:25;22.60;86.00
3406;DHT22;10008;48.682;9.016;2023-06-19T01:02:51;22.70;84.90
3406;DHT22;10008;48.682;9.016;2023-06-19T01:05:17;22.70;84.60
3406;DHT22;10008;48.682;9.016;2023-06-19T01:10:35;22.70;85.80
3406;DHT22;10008;48.682;9.016;2023-06-19T01:13:08;22.70;85.70
3406;DHT22;10008;48.682;9.016;2023-06-19T01:15:37;22.60;84.80
3406;DHT22;10008;48.682;9.016;2023-06-19T01:18:04;22.50;84.90
3406;DHT22;10008;48.682;9.016;2023-06-19T01:20:30;22.40;85.50
3406;DHT22;10008;48.682;9.016;2023-06-19T01:22:56;22.30;86.20
3406;DHT22;10008;48.682;9.016;2023-06-19T01:25:25;22.30;86.70
3406;DHT22;10008;48.682;9.016;2023-06-19T01:27:51;22.20;86.90
3406;DHT22;10008;48.682;9.016;2023-06-19T01:30:17;22.00;87.70
3406;DHT22;10008;48.682;9.016;2023-06-19T01:33:16;22.00;88.20
3406;DHT22;10008;48.682;9.016;2023-06-19T01:35:46;21.90;89.60
3406;DHT22;10008;48.682;9.016;2023-06-19T01:38:13;21.80;89.90
3406;DHT22;10008;48.682;9.016;2023-06-19T01:40:40;21.80;90.10
3406;DHT22;10008;48.682;9.016;2023-06-19T01:43:07;21.80;90.60
3406;DHT22;10008;48.682;9.016;2023-06-19T01:45:33;21.70;90.70
3406;DHT22;10008;48.682;9.016;2023-06-19T01:47:59;21.70;91.10
3406;DHT22;10008;48.682;9.016;2023-06-19T01:50:26;21.70;91.00
3406;DHT22;10008;48.682;9.016;2023-06-19T01:52:52;21.70;90.60
3406;DHT22;10008;48.682;9.016;2023-06-19T01:55:18;21.70;91.20
3406;DHT22;10008;48.682;9.016;2023-06-19T01:57:44;21.60;91.50
3406;DHT22;10008;48.682;9.016;2023-06-19T02:00:11;21.60;91.60
3406;DHT22;10008;48.682;9.016;2023-06-19T02:02:41;21.60;92.10
3406;DHT22;10008;48.682;9.016;2023-06-19T02:05:07;21.50;92.60
3406;DHT22;10008;48.682;9.016;2023-06-19T02:07:33;21.60;93.00
3406;DHT22;10008;48.682;9.016;2023-06-19T02:09:59;21.50;93.30
3406;DHT22;10008;48.682;9.016;2023-06-19T02:12:24;21.50;93.90
3406;DHT22;10008;48.682;9.016;2023-06-19T02:14:50;21.40;94.00
3406;DHT22;10008;48.682;9.016;2023-06-19T02:17:16;21.40;94.40
3406;DHT22;10008;48.682;9.016;2023-06-19T02:19:42;21.30;94.80
3406;DHT22;10008;48.682;9.016;2023-06-19T02:22:08;21.30;95.40
3406;DHT22;10008;48.682;9.016;2023-06-19T02:24:34;21.20;95.20
3406;DHT22;10008;48.682;9.016;2023-06-19T02:26:59;21.30;95.90
3406;DHT22;10008;48.682;9.016;2023-06-19T02:29:27;21.30;95.70
3406;DHT22;10008;48.682;9.016;2023-06-19T02:31:55;21.00;96.00
3406;DHT22;10008;48.682;9.016;2023-06-19T02:34:21;21.20;96.10
3406;DHT22;10008;48.682;9.016;2023-06-19T02:36:50;21.20;96.40
3406;DHT22;10008;48.682;9.016;2023-06-19T02:39:15;21.20;96.50
3406;DHT22;10008;48.682;9.016;2023-06-19T02:41:41;21.20;96.70
3406;DHT22;10008;48.682;9.016;2023-06-19T02:44:12;21.20;96.90
3406;DHT22;10008;48.682;9.016;2023-06-19T02:46:38;21.10;96.80
3406;DHT22;10008;48.682;9.016;2023-06-19T02:49:04;21.10;97.10
3406;DHT22;10008;48.682;9.016;2023-06-19T02:51:29;21.10;97.10
3406;DHT22;10008;48.682;9.016;2023-06-19T02:53:55;21.10;97.40
3406;DHT22;10008;48.682;9.016;2023-06-19T02:56:22;21.10;97.40
3406;DHT22;10008;48.682;9.016;2023-06-19T02:58:48;21.10;97.40
3406;DHT22;10008;48.682;9.016;2023-06-19T03:01:13;21.10;97.40
3406;DHT22;10008;48.682;9.016;2023-06-19T03:03:39;21.00;97.60
3406;DHT22;10008;48.682;9.016;2023-06-19T03:06:07;21.00;97.70
3406;DHT22;10008;48.682;9.016;2023-06-19T03:08:36;21.00;97.80
3406;DHT22;10008;48.682;9.016;2023-06-19T03:11:03;21.00;98.30
3406;DHT22;10008;48.682;9.016;2023-06-19T03:13:46;20.90;98.60
3406;DHT22;10008;48.682;9.016;2023-06-19T03:16:12;20.90;98.40
3406;DHT22;10008;48.682;9.016;2023-06-19T03:18:38;20.80;98.60
3406;DHT22;10008;48.682;9.016;2023-06-19T03:21:04;20.80;99.10
3406;DHT22;10008;48.682;9.016;2023-06-19T03:23:30;20.80;99.90
3406;DHT22;10008;48.682;9.016;2023-06-19T03:25:56;18.80;99.50
3406;DHT22;10008;48.682;9.016;2023-06-19T03:28:23;20.50;99.90
3406;DHT22;10008;48.682;9.016;2023-06-19T03:30:50;20.50;99.90
3406;DHT22;10008;48.682;9.016;2023-06-19T03:33:20;20.40;99.90
3406;DHT22;10008;48.682;9.016;2023-06-19T03:35:45;20.40;99.90
3406;DHT22;10008;48.682;9.016;2023-06-19T03:38:28;20.40;99.90
3406;DHT22;10008;48.682;9.016;2023-06-19T03:40:54;20.30;99.90
3406;DHT22;10008;48.682;9.016;2023-06-19T03:43:20;20.40;99.90
3406;DHT22;10008;48.682;9.016;2023-06-19T03:45:46;20.30;99.90
3406;DHT22;10008;48.682;9.016;2023-06-19T03:48:11;20.30;99.90
3406;DHT22;10008;48.682;9.016;2023-06-19T03:50:38;20.10;99.90
3406;DHT22;10008;48.682;9.016;2023-06-19T03:53:06;20.00;99.90
3406;DHT22;10008;48.682;9.016;2023-06-19T03:55:32;19.90;99.90
3406;DHT22;10008;48.682;9.016;2023-06-19T03:57:58;19.90;99.90
3406;DHT22;10008;48.682;9.016;2023-06-19T04:00:24;19.80;99.90
3406;DHT22;10008;48.682;9.016;2023-06-19T04:02:50;19.80;99.90
3406;DHT22;10008;48.682;9.016;2023-06-19T04:05:15;19.80;99.90
3406;DHT22;10008;48.682;9.016;2023-06-19T04:07:42;19.70;99.90
3406;DHT22;10008;48.682;9.016;2023-06-19T04:10:08;19.40;99.90
3406;DHT22;10008;48.682;9.016;2023-06-19T04:12:34;19.10;99.90
3406;DHT22;10008;48.682;9.016;2023-06-19T04:14:59;18.80;99.90
3406;DHT22;10008;48.682;9.016;2023-06-19T04:17:25;18.60;99.90
3406;DHT22;10008;48.682;9.016;2023-06-19T04:19:51;18.50;99.90
3406;DHT22;10008;48.682;9.016;2023-06-19T04:22:19;18.30;99.90
3406;DHT22;10008;48.682;9.016;2023-06-19T04:24:44;18.30;99.90
3406;DHT22;10008;48.682;9.016;2023-06-19T04:27:10;18.20;99.90
3406;DHT22;10008;48.682;9.016;2023-06-19T04:29:37;18.00;99.90
3406;DHT22;10008;48.682;9.016;2023-06-19T04:32:02;18.00;99.90
3406;DHT22;10008;48.682;9.016;2023-06-19T04:34:37;18.00;99.90
3406;DHT22;10008;48.682;9.016;2023-06-19T04:37:02;17.90;99.90
3406;DHT22;10008;48.682;9.016;2023-06-19T04:39:28;18.00;99.90
3406;DHT22;10008;48.682;9.016;2023-06-19T04:41:54;18.00;99.90
3406;DHT22;10008;48.682;9.016;2023-06-19T04:44:19;18.10;99.90
3406;DHT22;10008;48.682;9.016;2023-06-19T04:46:45;18.10;99.90
3406;DHT22;10008;48.682;9.016;2023-06-19T04:49:12;18.20;99.90
3406;DHT22;10008;48.682;9.016;2023-06-19T04:51:39;18.30;99.90
3406;DHT22;10008;48.682;9.016;2023-06-19T04:54:05;18.40;99.90
3406;DHT22;10008;48.682;9.016;2023-06-19T04:56:30;18.40;99.90
3406;DHT22;10008;48.682;9.016;2023-06-19T04:58:57;18.50;99.90
3406;DHT22;10008;48.682;9.016;2023-06-19T05:01:26;18.70;99.90
3406;DHT22;10008;48.682;9.016;2023-06-19T05:03:56;18.80;99.90
3406;DHT22;10008;48.682;9.016;2023-06-19T05:06:25;18.90;99.90
3406;DHT22;10008;48.682;9.016;2023-06-19T05:08:51;19.10;99.90
3406;DHT22;10008;48.682;9.016;2023-06-19T05:11:18;19.20;99.90
3406;DHT22;10008;48.682;9.016;2023-06-19T05:13:43;19.30;99.90
3406;DHT22;10008;48.682;9.016;2023-06-19T05:16:10;19.40;99.90
3406;DHT22;10008;48.682;9.016;2023-06-19T05:18:37;19.50;99.90
3406;DHT22;10008;48.682;9.016;2023-06-19T05:21:02;19.70;99.90
3406;DHT22;10008;48.682;9.016;2023-06-19T05:23:28;19.90;99.90
3406;DHT22;10008;48.682;9.016;2023-06-19T05:25:54;20.10;99.90
3406;DHT22;10008;48.682;9.016;2023-06-19T05:28:19;20.20;99.90
3406;DHT22;10008;48.682;9.016;2023-06-19T05:30:45;20.40;99.90
3406;DHT22;10008;48.682;9.016;2023-06-19T05:33:11;20.50;99.90
3406;DHT22;10008;48.682;9.016;2023-06-19T05:35:41;20.60;99.90
3406;DHT22;10008;48.682;9.016;2023-06-19T05:38:08;20.70;99.90
3406;DHT22;10008;48.682;9.016;2023-06-19T05:40:34;20.80;99.90
3406;DHT22;10008;48.682;9.016;2023-06-19T05:42:59;20.80;99.90
3406;DHT22;10008;48.682;9.016;2023-06-19T05:45:25;20.90;99.90
3406;DHT22;10008;48.682;9.016;2023-06-19T05:47:51;20.80;99.90
3406;DHT22;10008;48.682;9.016;2023-06-19T05:50:17;20.90;99.90
3406;DHT22;10008;48.682;9.016;2023-06-19T05:52:42;20.90;99.90
3406;DHT22;10008;48.682;9.016;2023-06-19T05:55:10;21.00;99.90
3406;DHT22;10008;48.682;9.016;2023-06-19T05:57:36;21.20;99.90
3406;DHT22;10008;48.682;9.016;2023-06-19T06:00:01;21.20;99.90
3406;DHT22;10008;48.682;9.016;2023-06-19T06:02:38;21.30;99.90
3406;DHT22;10008;48.682;9.016;2023-06-19T06:05:04;21.20;99.90
3406;DHT22;10008;48.682;9.016;2023-06-19T06:07:30;21.30;99.90
3406;DHT22;10008;48.682;9.016;2023-06-19T06:09:56;21.40;99.90
3406;DHT22;10008;48.682;9.016;2023-06-19T06:12:21;21.60;99.90
3406;DHT22;10008;48.682;9.016;2023-06-19T06:14:47;21.70;99.90
3406;DHT22;10008;48.682;9.016;2023-06-19T06:17:13;22.10;99.90
3406;DHT22;10008;48.682;9.016;2023-06-19T06:19:39;22.20;99.90
3406;DHT22;10008;48.682;9.016;2023-06-19T06:22:05;22.20;99.90
3406;DHT22;10008;48.682;9.016;2023-06-19T06:24:30;22.40;99.90
3406;DHT22;10008;48.682;9.016;2023-06-19T06:26:56;22.70;99.90
3406;DHT22;10008;48.682;9.016;2023-06-19T06:29:22;22.60;99.90
3406;DHT22;10008;48.682;9.016;2023-06-19T06:31:48;22.40;99.90
3406;DHT22;10008;48.682;9.016;2023-06-19T06:34:14;22.60;99.90
3406;DHT22;10008;48.682;9.016;2023-06-19T06:36:40;22.50;99.90
3406;DHT22;10008;48.682;9.016;2023-06-19T06:39:05;22.50;99.90
3406;DHT22;10008;48.682;9.016;2023-06-19T06:41:31;22.60;99.90
3406;DHT22;10008;48.682;9.016;2023-06-19T06:43:57;22.60;99.90
3406;DHT22;10008;48.682;9.016;2023-06-19T06:46:23;22.60;99.90
3406;DHT22;10008;48.682;9.016;2023-06-19T06:48:49;22.80;99.90
3406;DHT22;10008;48.682;9.016;2023-06-19T06:51:15;23.10;99.90
3406;DHT22;10008;48.682;9.016;2023-06-19T06:53:41;23.10;99.90
3406;DHT22;10008;48.682;9.016;2023-06-19T06:56:06;23.20;99.90
3406;DHT22;10008;48.682;9.016;2023-06-19T06:58:32;23.00;99.90
3406;DHT22;10008;48.682;9.016;2023-06-19T07:00:58;23.30;99.90
3406;DHT22;10008;48.682;9.016;2023-06-19T07:03:24;23.60;99.90
3406;DHT22;10008;48.682;9.016;2023-06-19T07:05:49;23.90;99.90
3406;DHT22;10008;48.682;9.016;2023-06-19T07:08:15;24.70;99.90
3406;DHT22;10008;48.682;9.016;2023-06-19T07:10:41;25.50;99.50
3406;DHT22;10008;48.682;9.016;2023-06-19T07:13:06;26.10;98.40
3406;DHT22;10008;48.682;9.016;2023-06-19T07:15:32;27.70;96.20
3406;DHT22;10008;48.682;9.016;2023-06-19T07:17:58;28.40;94.30
3406;DHT22;10008;48.682;9.016;2023-06-19T07:20:24;28.70;92.50
3406;DHT22;10008;48.682;9.016;2023-06-19T07:22:51;28.60;92.60
3406;DHT22;10008;48.682;9.016;2023-06-19T07:25:18;28.60;91.10
3406;DHT22;10008;48.682;9.016;2023-06-19T07:27:44;28.70;90.80
3406;DHT22;10008;48.682;9.016;2023-06-19T07:30:10;29.10;91.00
3406;DHT22;10008;48.682;9.016;2023-06-19T07:32:37;28.40;91.00
3406;DHT22;10008;48.682;9.016;2023-06-19T07:35:04;28.30;91.00
3406;DHT22;10008;48.682;9.016;2023-06-19T07:37:30;28.90;91.00
3406;DHT22;10008;48.682;9.016;2023-06-19T07:39:55;29.20;90.10
3406;DHT22;10008;48.682;9.016;2023-06-19T07:42:21;28.40;90.20
3406;DHT22;10008;48.682;9.016;2023-06-19T07:44:47;27.10;92.20
3406;DHT22;10008;48.682;9.016;2023-06-19T07:47:15;26.40;93.50
3406;DHT22;10008;48.682;9.016;2023-06-19T07:49:41;25.90;93.90
3406;DHT22;10008;48.682;9.016;2023-06-19T07:52:07;25.30;95.30
3406;DHT22;10008;48.682;9.016;2023-06-19T07:54:35;25.00;96.20
3406;DHT22;10008;48.682;9.016;2023-06-19T07:57:01;24.70;96.70
3406;DHT22;10008;48.682;9.016;2023-06-19T07:59:27;24.40;97.30
3406;DHT22;10008;48.682;9.016;2023-06-19T08:01:53;24.30;97.80
3406;DHT22;10008;48.682;9.016;2023-06-19T08:04:18;24.30;98.70
3406;DHT22;10008;48.682;9.016;2023-06-19T08:06:44;24.40;98.50
3406;DHT22;10008;48.682;9.016;2023-06-19T08:09:10;24.30;98.10
3406;DHT22;10008;48.682;9.016;2023-06-19T08:11:35;24.40;97.80
3406;DHT22;10008;48.682;9.016;2023-06-19T08:14:02;24.50;97.70
3406;DHT22;10008;48.682;9.016;2023-06-19T08:16:28;24.70;98.00
3406;DHT22;10008;48.682;9.016;2023-06-19T08:18:54;24.90;98.10
3406;DHT22;10008;48.682;9.016;2023-06-19T08:21:20;24.70;97.50
3406;DHT22;10008;48.682;9.016;2023-06-19T08:23:47;24.90;97.70
3406;DHT22;10008;48.682;9.016;2023-06-19T08:26:13;25.50;96.50
3406;DHT22;10008;48.682;9.016;2023-06-19T08:28:39;26.40;94.50
3406;DHT22;10008;48.682;9.016;2023-06-19T08:31:07;27.50;93.10
3406;DHT22;10008;48.682;9.016;2023-06-19T08:33:34;28.40;92.10
3406;DHT22;10008;48.682;9.016;2023-06-19T08:36:01;28.50;90.30
3406;DHT22;10008;48.682;9.016;2023-06-19T08:38:26;29.40;90.10
3406;DHT22;10008;48.682;9.016;2023-06-19T08:40:53;29.70;87.00
3406;DHT22;10008;48.682;9.016;2023-06-19T08:43:19;30.50;85.20
3406;DHT22;10008;48.682;9.016;2023-06-19T08:46:13;31.50;84.30
3406;DHT22;10008;48.682;9.016;2023-06-19T08:48:39;31.60;79.40
3406;DHT22;10008;48.682;9.016;2023-06-19T08:51:05;32.00;77.50
3406;DHT22;10008;48.682;9.016;2023-06-19T08:53:35;32.10;76.70
3406;DHT22;10008;48.682;9.016;2023-06-19T08:56:03;32.20;76.30
3406;DHT22;10008;48.682;9.016;2023-06-19T08:58:29;32.20;76.30
3406;DHT22;10008;48.682;9.016;2023-06-19T09:00:54;31.50;75.50
3406;DHT22;10008;48.682;9.016;2023-06-19T09:03:22;31.20;77.00
3406;DHT22;10008;48.682;9.016;2023-06-19T09:05:49;30.20;79.80
3406;DHT22;10008;48.682;9.016;2023-06-19T09:08:19;29.00;83.10
3406;DHT22;10008;48.682;9.016;2023-06-19T09:10:57;28.20;85.60
3406;DHT22;10008;48.682;9.016;2023-06-19T09:13:23;27.50;87.20
3406;DHT22;10008;48.682;9.016;2023-06-19T09:16:04;27.00;89.90
3406;DHT22;10008;48.682;9.016;2023-06-19T09:18:31;26.70;90.10
3406;DHT22;10008;48.682;9.016;2023-06-19T09:20:58;26.30;90.60
3406;DHT22;10008;48.682;9.016;2023-06-19T09:23:24;25.90;91.50
3406;DHT22;10008;48.682;9.016;2023-06-19T09:25:53;26.00;92.10
3406;DHT22;10008;48.682;9.016;2023-06-19T09:28:26;26.40;91.60
3406;DHT22;10008;48.682;9.016;2023-06-19T09:30:59;26.40;92.00
3406;DHT22;10008;48.682;9.016;2023-06-19T09:33:27;26.40;91.70
3406;DHT22;10008;48.682;9.016;2023-06-19T09:35:54;27.50;91.30
3406;DHT22;10008;48.682;9.016;2023-06-19T09:38:30;28.60;87.60
3406;DHT22;10008;48.682;9.016;2023-06-19T09:40:57;29.40;85.00
3406;DHT22;10008;48.682;9.016;2023-06-19T09:43:35;30.30;82.00
3406;DHT22;10008;48.682;9.016;2023-06-19T09:46:03;30.90;81.10
3406;DHT22;10008;48.682;9.016;2023-06-19T09:48:31;31.80;76.60
3406;DHT22;10008;48.682;9.016;2023-06-19T09:51:15;32.50;77.00
3406;DHT22;10008;48.682;9.016;2023-06-19T09:53:44;33.30;72.50
3406;DHT22;10008;48.682;9.016;2023-06-19T09:56:12;33.80;69.60
3406;DHT22;10008;48.682;9.016;2023-06-19T09:58:39;33.70;67.00
3406;DHT22;10008;48.682;9.016;2023-06-19T10:01:06;34.00;65.60
3406;DHT22;10008;48.682;9.016;2023-06-19T10:03:34;34.60;63.60
3406;DHT22;10008;48.682;9.016;2023-06-19T10:06:01;35.10;63.40
3406;DHT22;10008;48.682;9.016;2023-06-19T10:08:32;34.50;62.10
3406;DHT22;10008;48.682;9.016;2023-06-19T10:11:03;34.30;65.50
3406;DHT22;10008;48.682;9.016;2023-06-19T10:13:37;34.30;63.00
3406;DHT22;10008;48.682;9.016;2023-06-19T10:16:27;34.70;61.80
3406;DHT22;10008;48.682;9.016;2023-06-19T10:18:52;34.80;61.50
3406;DHT22;10008;48.682;9.016;2023-06-19T10:21:19;34.70;62.20
3406;DHT22;10008;48.682;9.016;2023-06-19T10:23:56;34.40;59.90
3406;DHT22;10008;48.682;9.016;2023-06-19T10:26:33;34.00;59.60
3406;DHT22;10008;48.682;9.016;2023-06-19T10:28:59;33.60;63.40
3406;DHT22;10008;48.682;9.016;2023-06-19T10:31:25;32.90;63.10
3406;DHT22;10008;48.682;9.016;2023-06-19T10:33:50;33.20;63.90
3406;DHT22;10008;48.682;9.016;2023-06-19T10:36:18;32.80;63.60
3406;DHT22;10008;48.682;9.016;2023-06-19T10:38:45;32.30;64.60
3406;DHT22;10008;48.682;9.016;2023-06-19T10:41:21;31.80;67.00
3406;DHT22;10008;48.682;9.016;2023-06-19T10:46:28;31.20;67.80
3406;DHT22;10008;48.682;9.016;2023-06-19T10:48:54;31.00;68.40
3406;DHT22;10008;48.682;9.016;2023-06-19T10:51:25;30.90;67.40
3406;DHT22;10008;48.682;9.016;2023-06-19T10:53:56;31.50;67.50
3406;DHT22;10008;48.682;9.016;2023-06-19T10:56:23;31.90;65.40
3406;DHT22;10008;48.682;9.016;2023-06-19T10:58:57;31.80;69.20
3406;DHT22;10008;48.682;9.016;2023-06-19T11:01:34;31.70;65.70
3406;DHT22;10008;48.682;9.016;2023-06-19T11:04:03;32.60;67.40
3406;DHT22;10008;48.682;9.016;2023-06-19T11:06:29;34.00;64.40
3406;DHT22;10008;48.682;9.016;2023-06-19T11:08:55;34.40;62.20
3406;DHT22;10008;48.682;9.016;2023-06-19T11:11:21;35.40;58.80
3406;DHT22;10008;48.682;9.016;2023-06-19T11:13:47;36.10;59.60
3406;DHT22;10008;48.682;9.016;2023-06-19T11:16:14;36.20;58.90
3406;DHT22;10008;48.682;9.016;2023-06-19T11:18:40;36.00;59.60
3406;DHT22;10008;48.682;9.016;2023-06-19T11:21:06;35.00;62.10
3406;DHT22;10008;48.682;9.016;2023-06-19T11:23:31;34.20;62.70
3406;DHT22;10008;48.682;9.016;2023-06-19T11:26:04;33.70;63.00
3406;DHT22;10008;48.682;9.016;2023-06-19T11:28:30;33.10;64.90
3406;DHT22;10008;48.682;9.016;2023-06-19T11:31:00;32.40;65.80
3406;DHT22;10008;48.682;9.016;2023-06-19T11:33:27;31.60;68.20
3406;DHT22;10008;48.682;9.016;2023-06-19T11:35:58;31.00;69.60
3406;DHT22;10008;48.682;9.016;2023-06-19T11:38:25;31.10;68.10
3406;DHT22;10008;48.682;9.016;2023-06-19T11:40:52;30.90;68.20
3406;DHT22;10008;48.682;9.016;2023-06-19T11:46:02;31.20;70.60
3406;DHT22;10008;48.682;9.016;2023-06-19T11:48:28;31.30;68.20
3406;DHT22;10008;48.682;9.016;2023-06-19T11:50:54;31.00;69.80
3406;DHT22;10008;48.682;9.016;2023-06-19T11:53:24;30.90;69.50
3406;DHT22;10008;48.682;9.016;2023-06-19T11:55:51;32.00;69.50
3406;DHT22;10008;48.682;9.016;2023-06-19T11:58:17;32.70;67.40
3406;DHT22;10008;48.682;9.016;2023-06-19T12:00:45;33.60;66.00
3406;DHT22;10008;48.682;9.016;2023-06-19T12:03:11;34.70;62.80
3406;DHT22;10008;48.682;9.016;2023-06-19T12:05:38;34.70;60.40
3406;DHT22;10008;48.682;9.016;2023-06-19T12:08:04;34.70;60.60
3406;DHT22;10008;48.682;9.016;2023-06-19T12:10:31;34.90;59.80
3406;DHT22;10008;48.682;9.016;2023-06-19T12:12:57;34.70;61.50
3406;DHT22;10008;48.682;9.016;2023-06-19T12:15:24;35.20;60.20
3406;DHT22;10008;48.682;9.016;2023-06-19T12:17:51;36.10;58.90
3406;DHT22;10008;48.682;9.016;2023-06-19T12:20:17;36.70;56.80
3406;DHT22;10008;48.682;9.016;2023-06-19T12:22:42;37.60;55.70
3406;DHT22;10008;48.682;9.016;2023-06-19T12:25:08;38.10;53.90
3406;DHT22;10008;48.682;9.016;2023-06-19T12:27:34;37.30;56.40
3406;DHT22;10008;48.682;9.016;2023-06-19T12:30:00;36.30;54.70
3406;DHT22;10008;48.682;9.016;2023-06-19T12:32:26;35.50;56.30
3406;DHT22;10008;48.682;9.016;2023-06-19T12:34:52;34.50;59.30
3406;DHT22;10008;48.682;9.016;2023-06-19T12:37:20;34.00;60.40
3406;DHT22;10008;48.682;9.016;2023-06-19T12:39:47;33.40;59.80
3406;DHT22;10008;48.682;9.016;2023-06-19T12:42:13;32.80;60.80
3406;DHT22;10008;48.682;9.016;2023-06-19T12:44:42;33.00;60.40
3406;DHT22;10008;48.682;9.016;2023-06-19T12:47:08;33.10;65.30
3406;DHT22;10008;48.682;9.016;2023-06-19T12:49:34;32.80;62.30
3406;DHT22;10008;48.682;9.016;2023-06-19T12:52:00;32.60;65.10
3406;DHT22;10008;48.682;9.016;2023-06-19T12:54:26;32.30;65.20
3406;DHT22;10008;48.682;9.016;2023-06-19T12:56:52;31.90;64.80
3406;DHT22;10008;48.682;9.016;2023-06-19T12:59:19;31.50;66.40
3406;DHT22;10008;48.682;9.016;2023-06-19T13:01:45;31.20;66.10
3406;DHT22;10008;48.682;9.016;2023-06-19T13:04:12;31.10;68.70
3406;DHT22;10008;48.682;9.016;2023-06-19T13:06:38;30.80;68.60
3406;DHT22;10008;48.682;9.016;2023-06-19T13:09:06;30.80;68.70
3406;DHT22;10008;48.682;9.016;2023-06-19T13:11:32;31.00;69.40
3406;DHT22;10008;48.682;9.016;2023-06-19T13:14:00;31.40;70.90
3406;DHT22;10008;48.682;9.016;2023-06-19T13:16:26;31.70;66.00
3406;DHT22;10008;48.682;9.016;2023-06-19T13:18:52;31.60;66.80
3406;DHT22;10008;48.682;9.016;2023-06-19T13:21:18;31.60;67.10
3406;DHT22;10008;48.682;9.016;2023-06-19T13:23:44;31.40;66.30
3406;DHT22;10008;48.682;9.016;2023-06-19T13:26:10;30.90;68.90
3406;DHT22;10008;48.682;9.016;2023-06-19T13:28:36;30.80;68.80
3406;DHT22;10008;48.682;9.016;2023-06-19T13:31:03;30.80;68.00
3406;DHT22;10008;48.682;9.016;2023-06-19T13:33:29;31.00;68.80
3406;DHT22;10008;48.682;9.016;2023-06-19T13:35:54;31.20;68.50
3406;DHT22;10008;48.682;9.016;2023-06-19T13:38:20;31.50;67.20
3406;DHT22;10008;48.682;9.016;2023-06-19T13:40:47;31.90;65.70
3406;DHT22;10008;48.682;9.016;2023-06-19T13:43:12;31.80;64.90
3406;DHT22;10008;48.682;9.016;2023-06-19T13:45:38;32.00;66.40
3406;DHT22;10008;48.682;9.016;2023-06-19T13:48:05;32.30;64.60
3406;DHT22;10008;48.682;9.016;2023-06-19T13:50:31;32.30;63.80
3406;DHT22;10008;48.682;9.016;2023-06-19T13:52:58;32.20;64.50
3406;DHT22;10008;48.682;9.016;2023-06-19T13:55:24;32.20;65.10
3406;DHT22;10008;48.682;9.016;2023-06-19T13:57:50;32.20;65.60
3406;DHT22;10008;48.682;9.016;2023-06-19T14:00:16;32.30;66.40
3406;DHT22;10008;48.682;9.016;2023-06-19T14:02:42;32.40;65.20
3406;DHT22;10008;48.682;9.016;2023-06-19T14:05:09;32.50;63.40
3406;DHT22;10008;48.682;9.016;2023-06-19T14:07:35;32.70;63.40
3406;DHT22;10008;48.682;9.016;2023-06-19T14:10:02;33.00;60.90
3406;DHT22;10008;48.682;9.016;2023-06-19T14:12:29;33.30;61.30
3406;DHT22;10008;48.682;9.016;2023-06-19T14:14:55;33.50;59.80
3406;DHT22;10008;48.682;9.016;2023-06-19T14:17:22;33.50;62.50
3406;DHT22;10008;48.682;9.016;2023-06-19T14:19:48;33.40;59.10
3406;DHT22;10008;48.682;9.016;2023-06-19T14:22:14;32.80;61.50
3406;DHT22;10008;48.682;9.016;2023-06-19T14:24:40;32.30;63.40
3406;DHT22;10008;48.682;9.016;2023-06-19T14:27:07;31.70;67.10
3406;DHT22;10008;48.682;9.016;2023-06-19T14:29:32;31.50;63.20
3406;DHT22;10008;48.682;9.016;2023-06-19T14:31:58;31.20;64.60
3406;DHT22;10008;48.682;9.016;2023-06-19T14:34:24;31.10;67.20
3406;DHT22;10008;48.682;9.016;2023-06-19T14:36:50;31.10;69.20
3406;DHT22;10008;48.682;9.016;2023-06-19T14:39:15;31.10;65.00
3406;DHT22;10008;48.682;9.016;2023-06-19T14:41:42;31.00;65.40
3406;DHT22;10008;48.682;9.016;2023-06-19T14:44:07;31.00;64.40
3406;DHT22;10008;48.682;9.016;2023-06-19T14:46:33;31.00;63.90
3406;DHT22;10008;48.682;9.016;2023-06-19T14:49:10;31.10;63.80
3406;DHT22;10008;48.682;9.016;2023-06-19T14:51:36;31.20;63.30
3406;DHT22;10008;48.682;9.016;2023-06-19T14:54:01;31.40;63.70
3406;DHT22;10008;48.682;9.016;2023-06-19T14:56:28;31.50;65.70
3406;DHT22;10008;48.682;9.016;2023-06-19T14:58:54;31.50;65.70
3406;DHT22;10008;48.682;9.016;2023-06-19T15:01:19;31.40;63.10
3406;DHT22;10008;48.682;9.016;2023-06-19T15:03:45;31.30;63.70
3406;DHT22;10008;48.682;9.016;2023-06-19T15:06:11;31.20;63.30
3406;DHT22;10008;48.682;9.016;2023-06-19T15:08:37;31.20;64.10
3406;DHT22;10008;48.682;9.016;2023-06-19T15:11:05;31.30;67.70
3406;DHT22;10008;48.682;9.016;2023-06-19T15:13:31;31.40;62.90
3406;DHT22;10008;48.682;9.016;2023-06-19T15:15:57;31.40;62.90
3406;DHT22;10008;48.682;9.016;2023-06-19T15:18:26;31.30;62.50
3406;DHT22;10008;48.682;9.016;2023-06-19T15:20:52;31.40;64.30
3406;DHT22;10008;48.682;9.016;2023-06-19T15:23:17;31.70;62.50
3406;DHT22;10008;48.682;9.016;2023-06-19T15:25:43;31.60;61.30
3406;DHT22;10008;48.682;9.016;2023-06-19T15:28:09;31.50;63.00
3406;DHT22;10008;48.682;9.016;2023-06-19T15:30:35;31.40;62.30
3406;DHT22;10008;48.682;9.016;2023-06-19T15:33:00;31.20;62.90
3406;DHT22;10008;48.682;9.016;2023-06-19T15:35:26;31.10;63.10
3406;DHT22;10008;48.682;9.016;2023-06-19T15:37:52;31.10;65.50
3406;DHT22;10008;48.682;9.016;2023-06-19T15:40:18;31.30;63.00
3406;DHT22;10008;48.682;9.016;2023-06-19T15:42:43;31.40;63.30
3406;DHT22;10008;48.682;9.016;2023-06-19T15:45:10;31.60;63.60
3406;DHT22;10008;48.682;9.016;2023-06-19T15:47:36;32.00;60.50
3406;DHT22;10008;48.682;9.016;2023-06-19T15:50:02;32.30;60.30
3406;DHT22;10008;48.682;9.016;2023-06-19T15:52:29;32.00;61.20